createdAt,value
2022-11-25T00:03:10.716Z,9.2
2022-11-25T00:08:51.893Z,9.2
2022-11-25T00:14:32.708Z,9.4
2022-11-25T00:20:15.725Z,9.5
2022-11-25T00:25:56.089Z,9.5
2022-11-25T00:31:36.336Z,9.6
2022-11-25T00:37:17.385Z,9.7
2022-11-25T00:42:57.899Z,9.8
2022-11-25T00:48:38.204Z,9.8
2022-11-25T00:54:18.784Z,9.8
2022-11-25T00:59:59.015Z,9.9
2022-11-25T01:05:39.173Z,9.9
2022-11-25T01:11:20.075Z,9.8
2022-11-25T01:17:00.262Z,9.9
2022-11-25T01:22:40.550Z,9.8
2022-11-25T01:28:20.930Z,9.9
2022-11-25T01:34:01.345Z,9.9
2022-11-25T01:39:41.739Z,9.9
2022-11-25T01:45:23.792Z,9.9
2022-11-25T01:51:09.465Z,9.9
2022-11-25T01:56:49.969Z,10
2022-11-25T02:02:30.692Z,9.9
2022-11-25T02:08:12.010Z,10
2022-11-25T02:13:52.049Z,10
2022-11-25T02:19:32.680Z,9.9
2022-11-25T02:25:12.932Z,9.9
2022-11-25T02:30:53.204Z,9.9
2022-11-25T02:36:33.794Z,10
2022-11-25T02:42:14.316Z,10
2022-11-25T02:47:54.848Z,10.1
2022-11-25T02:53:35.407Z,10.1
2022-11-25T02:59:15.663Z,10.2
2022-11-25T03:04:55.799Z,10.2
2022-11-25T03:10:36.367Z,10.2
2022-11-25T03:16:16.896Z,10.3
2022-11-25T03:21:58.156Z,10.4
2022-11-25T03:27:38.711Z,10.3
2022-11-25T03:33:18.977Z,10.3
2022-11-25T03:38:59.299Z,10.2
2022-11-25T03:44:39.583Z,10
2022-11-25T03:50:19.766Z,9.8
2022-11-25T03:55:59.847Z,9.6
2022-11-25T04:01:44.144Z,9.5
2022-11-25T04:07:25.627Z,9.4
2022-11-25T04:13:06.703Z,9.3
2022-11-25T04:18:47.274Z,9.2
2022-11-25T04:24:27.316Z,9.2
2022-11-25T04:30:07.478Z,9.1
2022-11-25T04:35:47.824Z,9.1
2022-11-25T04:41:28.304Z,9.1
2022-11-25T04:47:09.161Z,9.2
2022-11-25T04:52:50.270Z,9.1
2022-11-25T04:58:30.441Z,9
2022-11-25T05:04:10.586Z,9
2022-11-25T05:09:54.173Z,8.9
2022-11-25T05:15:34.244Z,8.9
2022-11-25T05:21:14.598Z,8.8
2022-11-25T05:26:55.063Z,8.8
2022-11-25T05:32:35.189Z,8.8
2022-11-25T05:38:15.373Z,8.8
2022-11-25T05:43:55.970Z,8.8
2022-11-25T05:49:36.222Z,8.7
2022-11-25T05:55:16.541Z,8.6
2022-11-25T06:00:56.951Z,8.7
2022-11-25T06:06:37.128Z,8.6
2022-11-25T06:12:17.220Z,8.5
2022-11-25T06:17:57.666Z,8.3
2022-11-25T06:23:38.049Z,8.2
2022-11-25T06:29:18.567Z,8.1
2022-11-25T06:34:59.003Z,8.1
2022-11-25T06:40:42.069Z,8
2022-11-25T06:46:25.078Z,8
2022-11-25T06:52:06.628Z,8
2022-11-25T06:57:47.005Z,8
2022-11-25T07:03:27.323Z,8
2022-11-25T07:09:07.972Z,8
2022-11-25T07:14:48.062Z,8
2022-11-25T07:20:28.348Z,7.9
2022-11-25T07:26:09.047Z,8
2022-11-25T07:31:49.199Z,8.1
2022-11-25T07:37:29.563Z,8.2
2022-11-25T07:43:09.984Z,8.4
2022-11-25T07:48:50.106Z,8.5
2022-11-25T07:54:30.763Z,8.8
2022-11-25T08:00:12.146Z,9
2022-11-25T08:05:52.600Z,9.3
2022-11-25T08:11:32.716Z,9.6
2022-11-25T08:17:13.218Z,9.9
2022-11-25T08:22:53.654Z,10.2
2022-11-25T08:28:33.974Z,10.3
2022-11-25T08:34:14.618Z,10.7
2022-11-25T08:39:55.327Z,11.2
2022-11-25T08:45:39.048Z,11.5
2022-11-25T08:51:19.770Z,11.6
2022-11-25T08:57:00.139Z,11.7
2022-11-25T09:02:40.671Z,11.9
2022-11-25T09:08:22.168Z,11.9
2022-11-25T09:14:02.388Z,12
2022-11-25T09:19:43.709Z,12.4
2022-11-25T09:25:24.292Z,12.5
2022-11-25T09:31:04.623Z,12.5
2022-11-25T09:36:45.845Z,12.8
2022-11-25T09:42:26.500Z,12.9
2022-11-25T09:48:06.643Z,13.3
2022-11-25T09:53:46.633Z,12.9
2022-11-25T09:59:26.614Z,12
2022-11-25T10:05:06.901Z,12
2022-11-25T10:10:47.048Z,11.2
2022-11-25T10:16:28.265Z,12.3
2022-11-25T10:22:08.637Z,12
2022-11-25T10:27:49.176Z,11.5
2022-11-25T10:33:32.335Z,11.5
2022-11-25T10:39:12.793Z,11.5
2022-11-25T10:44:53.048Z,11.6
2022-11-25T10:50:33.701Z,11.6
2022-11-25T10:56:13.920Z,11.4
2022-11-25T11:01:54.465Z,11.5
2022-11-25T11:07:35.976Z,11.9
2022-11-25T11:13:17.901Z,11.6
2022-11-25T11:18:58.916Z,12.7
2022-11-25T11:24:40.134Z,13.8
2022-11-25T11:30:20.594Z,14.4
2022-11-25T11:36:07.002Z,14.3
2022-11-25T11:41:54.317Z,14.8
2022-11-25T11:47:35.823Z,13.1
2022-11-25T11:53:16.030Z,12.9
2022-11-25T11:58:57.124Z,12.8
2022-11-25T12:04:39.734Z,13.7
2022-11-25T12:10:19.935Z,12.9
2022-11-25T12:16:00.535Z,12.6
2022-11-25T12:21:42.350Z,11.9
2022-11-25T12:27:22.571Z,11.3
2022-11-25T12:33:03.125Z,11.2
2022-11-25T12:38:43.520Z,11.5
2022-11-25T12:44:23.988Z,12
2022-11-25T12:50:04.936Z,11.9
2022-11-25T12:55:45.173Z,12
2022-11-25T13:01:26.612Z,13.3
2022-11-25T13:07:08.461Z,13.5
2022-11-25T13:12:50.385Z,14.4
2022-11-25T13:18:33.924Z,14.3
2022-11-25T13:24:14.751Z,14.4
2022-11-25T13:29:55.146Z,14.4
2022-11-25T13:35:34.854Z,13.1
2022-11-25T13:41:15.116Z,12.4
2022-11-25T13:46:55.553Z,11.8
2022-11-25T13:52:36.284Z,12.1
2022-11-25T13:58:16.739Z,11.9
2022-11-25T14:03:56.998Z,11.6
2022-11-25T14:09:37.358Z,11.3
2022-11-25T14:15:20.015Z,11.3
2022-11-25T14:21:00.359Z,11.2
2022-11-25T14:26:55.884Z,11.1
2022-11-25T14:32:36.651Z,11.2
2022-11-25T14:38:17.204Z,11.1
2022-11-25T14:43:57.439Z,10.9
2022-11-25T14:50:05.586Z,10.7
2022-11-25T14:56:18.489Z,10.6
2022-11-25T15:01:59.178Z,10.4
2022-11-25T15:07:40.482Z,10.1
2022-11-25T15:13:21.233Z,9.9
2022-11-25T15:19:01.375Z,9.8
2022-11-25T15:24:41.786Z,9.9
2022-11-25T15:30:22.135Z,9.9
2022-11-25T15:36:02.612Z,10.1
2022-11-25T15:41:43.289Z,10.2
2022-11-25T15:47:23.675Z,10.2
2022-11-25T15:53:04.194Z,10.3
2022-11-25T15:58:44.632Z,10.4
2022-11-25T16:04:25.036Z,10.3
2022-11-25T16:10:05.291Z,10.3
2022-11-25T16:15:45.603Z,10.3
2022-11-25T16:21:25.914Z,10.3
2022-11-25T16:27:06.118Z,10.3
2022-11-25T16:32:47.516Z,10.1
2022-11-25T16:38:27.915Z,10
2022-11-25T16:44:09.098Z,10
2022-11-25T16:49:49.932Z,10
2022-11-25T16:55:30.152Z,9.9
2022-11-25T17:01:10.711Z,9.8
2022-11-25T17:07:16.838Z,9.7
2022-11-25T17:13:17.079Z,9.7
2022-11-25T17:18:57.548Z,9.6
2022-11-25T17:24:39.582Z,9.6
2022-11-25T17:30:20.898Z,9.4
2022-11-25T17:36:01.200Z,9.3
2022-11-25T17:41:41.792Z,9.5
2022-11-25T17:47:21.966Z,9.6
2022-11-25T17:53:02.515Z,9.6
2022-11-25T17:58:43.109Z,9.6
2022-11-25T18:04:23.498Z,9.6
2022-11-25T18:10:04.347Z,9.5
2022-11-25T18:15:50.183Z,9.4
2022-11-25T18:21:30.525Z,9.2
2022-11-25T18:27:10.702Z,9.2
2022-11-25T18:32:51.813Z,9.3
2022-11-25T18:38:35.330Z,9.1
2022-11-25T18:44:15.453Z,9
2022-11-25T18:49:56.724Z,8.9
2022-11-25T18:55:37.594Z,8.7
2022-11-25T19:01:18.049Z,8.8
2022-11-25T19:06:59.181Z,8.8
2022-11-25T19:12:39.481Z,8.8
2022-11-25T19:18:19.567Z,8.7
2022-11-25T19:23:59.915Z,8.6
2022-11-25T19:29:42.140Z,8.6
2022-11-25T19:35:23.399Z,8.5
2022-11-25T19:41:03.834Z,8.4
2022-11-25T19:47:07.423Z,8.3
2022-11-25T19:52:57.476Z,8.4
2022-11-25T19:58:37.714Z,8.4
2022-11-25T20:04:20.848Z,8.3
2022-11-25T20:10:04.664Z,8.2
2022-11-25T20:15:56.532Z,8.3
2022-11-25T20:21:40.071Z,8.1
2022-11-25T20:27:20.389Z,8.1
2022-11-25T20:33:00.851Z,8
2022-11-25T20:38:41.532Z,7.9
2022-11-25T20:44:21.898Z,7.9
2022-11-25T20:50:02.221Z,7.9
2022-11-25T20:55:45.866Z,7.8
2022-11-25T21:01:32.547Z,7.6
2022-11-25T21:07:14.025Z,7.6
2022-11-25T21:12:57.486Z,7.4
2022-11-25T21:18:37.664Z,7.4
2022-11-25T21:24:24.410Z,7.5
2022-11-25T21:30:05.043Z,7.4
2022-11-25T21:35:45.528Z,7.4
2022-11-25T21:41:47.705Z,7.4
2022-11-25T21:47:27.775Z,7.3
2022-11-25T21:53:08.089Z,7.2
2022-11-25T21:58:48.087Z,7
2022-11-25T22:04:28.429Z,6.9
2022-11-25T22:10:08.727Z,6.8
2022-11-25T22:15:49.080Z,6.7
2022-11-25T22:21:29.594Z,6.7
2022-11-25T22:27:10.304Z,6.7
2022-11-25T22:32:51.282Z,6.7
2022-11-25T22:38:31.653Z,6.6
2022-11-25T22:44:11.897Z,6.7
2022-11-25T22:49:52.578Z,6.7
2022-11-25T22:55:35.971Z,6.7
2022-11-25T23:01:16.364Z,6.6
2022-11-25T23:06:57.782Z,6.7
2022-11-25T23:12:38.059Z,6.6
2022-11-25T23:18:18.440Z,6.7
2022-11-25T23:23:58.876Z,6.7
2022-11-25T23:29:40.381Z,6.7
2022-11-25T23:35:21.190Z,6.6
2022-11-25T23:41:02.040Z,6.5
2022-11-25T23:46:43.491Z,6.6
2022-11-25T23:52:23.898Z,6.6
2022-11-25T23:58:04.333Z,6.5
